Terminal Aerodrome Forecast
Issued by NWS Cleveland, OH

Home | Current Version | Previous Version | Graphics & Text | Print | Product List | Glossary On
Versions: 1 2 3 4 5 6 7 8 9 10 11 12 13 14 15 16 17 18 19 20
917
FTUS41 KCLE 220534
TAFMFD
TAF
KMFD 220534Z 2206/2306 29008KT P6SM SCT035
      TEMPO 2206/2209 BKN030
     FM220900 26007KT P6SM BKN035
     FM221400 27011G20KT P6SM SCT050
     FM222200 23007KT P6SM FEW250=

USA.gov is the U.S. government's official web portal to all federal, state and local government web resources and services.